Terminal Aerodrome Forecast
Issued by NWS

Home | Current Version | Previous Version | Text Only | Print | Product List | Glossary On
Versions: 1 2 3 4 5 6 7 8 9 10 11 12 13 14 15 16 17
000
FTUS43 KDVN 151421 AAA
TAFCID
TAF AMD
KCID 151421Z 1514/1612 25011KT P6SM -SHSN BKN040
     FM151700 26014G21KT P6SM BKN035
     FM152200 23008KT P6SM BKN035
     FM160200 19006KT P6SM BKN250=

USA.gov is the U.S. government's official web portal to all federal, state and local government web resources and services.